WEATHER DATA

TODAY
Time Temp. Dewp. Hum. Wind dir Wind speed Wind gust Bar. 1h Prec. 24h Prec.
00:02 5.1 3.4 89 0 0 1021.8 0.0000 0.0000
00:12 5.1 3.4 89 0 0 1021.9 0.0000 0.0000
00:22 5.1 3.4 89 0 0 1021.6 0.0000 0.0000
00:33 5.1 3.4 89 0 0 1021.7 0.0000 0.0000
00:43 5.1 3.4 89 0 0 1021.5 0.0000 0.0000
00:53 5.1 3.4 89 0 0 1021.7 0.0000 0.0000
01:03 5.1 3.4 89 0 0 1021.3 0.0000 0.0000
01:13 5.1 3.4 89 0 0 1021.1 0.0000 0.0000
01:23 5.1 3.4 89 0 0 1021.1 0.0000 0.0000
01:33 5.1 3.4 89 0 0 1021 0.0000 0.0000
01:44 5.1 3.4 89 0 0 1020.6 0.0000 0.0000
01:53 5.1 3.4 89 0 0 1020.2 0.0000 0.0000
02:03 5.1 3.4 89 0 0 1020.4 0.0000 0.0000
02:14 5.1 3.3 88 0 0 1020.2 0.0000 0.0000
02:24 5 3.2 88 0 0 1019.9 0.0000 0.0000
02:34 5 3.2 88 0 0 1019.9 0.0000 0.0000
02:43 5.1 3.3 88 0 0 1019.8 0.0000 0.0000
02:54 5.1 3.3 88 0 0 1019.5 0.0000 0.0000
03:04 5.1 3.3 88 0 0 1019.3 0.0000 0.0000
03:14 5.1 3.3 88 0 0 1019.4 0.0000 0.0000
03:24 5.1 3.3 88 0 0 1019.4 0.0000 0.0000
03:34 5.1 3.3 88 0 0 1019.3 0.0000 0.0000
03:44 5.2 3.4 88 0 0 1018.8 0.0000 0.0000
03:54 5.2 3.4 88 0 0 1019 0.0000 0.0000
04:05 5.2 3.2 87 0 0 1019 0.0000 0.0000
04:15 5.2 3.2 87 0 0 1018.8 0.0000 0.0000
04:24 5.2 3.2 87 0 0 1018.5 0.1010 0.1000
04:34 5.2 3.2 87 0 0 1018.2 0.1010 0.1000
04:45 5.2 3.2 87 0 0 1018 0.1010 0.1000
04:55 5.2 3.2 87 0 0 1018.1 0.1010 0.1000
05:05 5.1 3.3 88 0 0 1018.1 0.1010 0.1000
05:15 5.1 3.3 88 0 0 1017.9 0.1010 0.1000
05:25 5.1 3.3 88 0 0 1017.8 0.0000 0.1000
05:35 5.2 3.4 88 0 0 1017.7 0.0000 0.1000
05:45 5.2 3.4 88 0 0 1017.6 0.0000 0.1000
05:56 5.3 3.5 88 0 0 1017.8 0.0000 0.1000
06:05 5.3 3.5 88 0 0 1017.7 0.0000 0.1000
06:15 5.3 3.5 88 0 0 1017.5 0.0000 0.1000
06:26 5.3 3.5 88 0 0 1017.4 0.0000 0.1000
06:36 5.3 3.5 88 0 0 1017.2 0.0000 0.1000
06:46 5.2 3.4 88 0 0 1017 0.1010 0.2000
07:00 5.1 3.4 89 0 0 1017 0.3030 0.4000
07:10 5.1 3.4 89 0 0 1016.9 0.3030 0.4000
07:20 5.1 3.6 90 0 0 1016.9 0.4040 0.5000
07:30 5.1 3.6 90 0 0 1016.6 0.4040 0.5000
07:41 5.1 3.6 90 0 0 1016.6 0.5050 0.6000
07:50 5.1 3.6 90 0 0 1016.5 0.4040 0.7000
08:00 5.1 3.8 91 0 0 1016.4 0.3030 0.7000
08:11 5.2 3.9 91 0 0 1016.3 0.4040 0.8000
08:21 5.2 3.9 91 0 0 1016.4 0.4040 0.9000
08:31 5.3 4 91 0 0 1016.4 0.4040 0.9000
08:41 5.3 4 91 0 0 1016.3 0.4040 1.0000
08:51 5.4 4.1 91 0 0 1016.2 0.5050 1.2000
09:01 5.5 4.1 91 0 0 1016.3 0.5050 1.2000
09:11 5.5 4.1 91 0 0 1016.3 0.5050 1.3000
09:22 5.6 4.2 91 0 0 1016.4 0.6060 1.5000
09:31 5.6 4.2 91 0 0 1016 0.5050 1.5000
09:41 5.7 4.5 92 0 0 1016 0.5050 1.5000
09:51 5.8 4.6 92 0 0 1016.1 0.3030 1.5000
10:02 5.9 4.7 92 0 0 1016.1 0.3030 1.5000
10:12 5.9 4.7 92 0 0 1016.1 0.2020 1.5000
10:21 6 4.8 92 0 0 1016 0.0000 1.5000
10:32 6.2 5 92 0 0 1016.1 0.0000 1.5000
10:42 6.4 5.2 92 0 0 1016 0.0000 1.5000
10:52 6.6 5.4 92 0 0 1016.1 0.0000 1.5000
11:02 6.7 5.5 92 0 0 1016.2 0.0000 1.5000
11:12 6.9 5.7 92 0 0 1016.3 0.0000 1.5000
11:32 7.1 5.9 92 0 0 1016.3 0.0000 1.5000
11:42 7.3 6.1 92 0 0 1016.2 0.0000 1.5000
11:53 7.4 6.2 92 0 0 1016.1 0.0000 1.5000
12:02 7.5 6.3 92 0 0 1016.2 0.0000 1.5000
12:12 7.6 6.4 92 0 0 1016.2 0.1010 1.6000
12:23 7.8 6.6 92 0 0 1015.9 0.1010 1.6000
12:33 7.8 6.6 92 0 0 1016.1 0.1010 1.6000
12:43 7.9 6.7 92 0 0 1016.1 0.1010 1.6000
12:53 8 6.8 92 0 0 1016.1 0.1010 1.6000
13:03 8.1 6.7 91 0 0 1016 0.1010 1.6000
13:13 8.3 7.1 92 0 0 1015.9 0.0000 1.6000
13:23 8.4 7 91 0 0 1016 0.0000 1.6000
13:34 8.4 7 91 0 0 1015.9 0.0000 1.6000
13:44 8.4 6.9 90 0 0 1015.8 0.0000 1.6000
13:59 8.3 6.8 90 0 0 1015.7 0.3030 1.9000
14:09 8.2 6.7 90 0 0 1015.7 0.4040 2.0000
14:20 8.1 6.6 90 0 0 1015.6 0.5050 2.1000
14:29 8.1 6.6 90 0 0 1015.8 0.5050 2.1000
14:39 8.1 6.6 90 0 0 1015.8 0.5050 2.1000
14:50 8.2 6.7 90 0 0 1015.9 0.5050 2.1000
14:58 8.2 6.7 90 0 0 1015.9 0.2020 2.1000
15:08 8.2 6.7 90 0 0 1015.9 0.1010 2.1000
15:18 8.1 6.4 89 0 0 1016 0.0000 2.1000
15:28 8.1 6.4 89 0 0 1016 0.0000 2.1000
15:38 8.1 6.4 89 0 0 1016.2 0.0000 2.1000
15:48 8.1 6.4 89 0 0 1016.4 0.0000 2.1000
15:58 8.1 6.2 88 0 0 1016.4 0.0000 2.1000
16:08 7.9 5.9 87 0 0 1016.4
16:18 7.8 5.8 87 0 0 1016.3
16:29 7.7 5.7 87 0 0 1016.5
16:38 7.7 5.7 87 0 0 1016.6
16:48 7.6 5.6 87 0 0 1016.7
16:59 7.4 5 85 0 0 1016.8
17:09 7 4.8 86 0 0 1016.9
17:19 6.9 4.7 86 0 0 1017
17:23 6.9 4.7 86 0 0 1017.1 0.0000 2.1000
17:34 6.8 4.6 86 0 0 1017.2 0.0000 2.1000
17:44 6.7 4.5 86 0 0 1017 0.0000 2.1000

DAY STATISTIC

2022-01-27
TEMPERATURE
AVERAGE
6.2
HIGH
8.4
13:23
LOW
5.0
02:24
PRESSURE
AVERAGE
1017.5
HIGH
1021.9
00:12
LOW
1015.6
14:20
DEWPOINT
AVERAGE
4.6
HIGH
7.1
13:13
LOW
3.2
02:24
HUMIDITY
AVERAGE
89
HIGH
92
09:41
LOW
85
16:59
WIND SPEED
AVERAGE
0.0
HIGH
0.0
16:56
WIND GUST
AVERAGE
0.0
HIGH
0.0
16:56
WIND DIRECTION
PREVAILING
%
PRECIPITATION
RAIN HOUR
0.6
RAIN DAY
2.1
TEMPERATURE (°C)
LOW
5.0
HIGH
8.4
AVERAGE
6.2
PRESSURE (hpa)
LOW
1015.6
HIGH
1021.9
AVERAGE
1017.5
DEVICE